createdAt,value
2019-01-03T00:00:44.674Z,16.87
2019-01-03T00:03:27.682Z,12.80
2019-01-03T00:06:01.419Z,19.30
2019-01-03T00:08:44.593Z,16.00
2019-01-03T00:11:24.392Z,11.83
2019-01-03T00:14:04.279Z,14.73
2019-01-03T00:16:38.139Z,12.87
2019-01-03T00:19:21.017Z,12.13
2019-01-03T00:22:07.077Z,11.50
2019-01-03T00:24:47.022Z,13.77
2019-01-03T00:27:20.703Z,11.87
2019-01-03T00:30:07.811Z,14.67
2019-01-03T00:32:38.912Z,12.47
2019-01-03T00:35:26.148Z,13.73
2019-01-03T00:37:57.282Z,10.23
2019-01-03T00:40:33.989Z,14.10
2019-01-03T00:43:21.368Z,12.23
2019-01-03T00:45:58.157Z,11.30
2019-01-03T00:48:45.680Z,13.53
2019-01-03T00:51:22.822Z,14.37
2019-01-03T00:54:00.049Z,11.27
2019-01-03T00:56:47.638Z,9.87
2019-01-03T00:59:27.828Z,12.07
2019-01-03T01:02:01.727Z,13.13
2019-01-03T01:04:49.104Z,11.03
2019-01-03T01:07:29.143Z,10.67
2019-01-03T01:10:06.337Z,14.77
2019-01-03T01:12:40.367Z,11.37
2019-01-03T01:15:27.636Z,8.37
2019-01-03T01:18:14.744Z,9.57
2019-01-03T01:21:01.021Z,14.17
2019-01-03T01:23:38.066Z,17.77
2019-01-03T01:26:11.753Z,11.40
2019-01-03T01:28:45.663Z,12.53
2019-01-03T01:31:25.722Z,10.37
2019-01-03T01:34:05.743Z,9.33
2019-01-03T01:36:55.169Z,10.33
2019-01-03T01:39:32.313Z,9.87
2019-01-03T01:42:03.461Z,13.57
2019-01-03T01:44:50.747Z,9.17
2019-01-03T01:47:21.832Z,9.50
2019-01-03T01:50:02.102Z,9.17
2019-01-03T01:52:33.212Z,9.03
2019-01-03T01:55:16.225Z,10.73
2019-01-03T01:57:47.349Z,8.00
2019-01-03T02:00:34.906Z,13.40
2019-01-03T02:03:08.619Z,16.63
2019-01-03T02:05:57.931Z,8.90
2019-01-03T02:08:35.011Z,10.23
2019-01-03T02:11:08.944Z,10.63
2019-01-03T02:13:55.108Z,12.13
2019-01-03T02:16:32.361Z,14.03
2019-01-03T02:19:19.513Z,12.27
2019-01-03T02:22:06.876Z,12.13
2019-01-03T02:24:43.987Z,12.77
2019-01-03T02:27:15.165Z,12.70
2019-01-03T02:29:48.874Z,12.20
2019-01-03T02:32:36.427Z,10.67
2019-01-03T02:35:07.611Z,15.03
2019-01-03T02:37:54.676Z,12.50
2019-01-03T02:40:25.767Z,15.03
2019-01-03T02:43:05.744Z,10.07
2019-01-03T02:45:45.854Z,9.13
2019-01-03T02:48:16.942Z,9.93
2019-01-03T02:50:50.729Z,8.93
2019-01-03T02:53:37.012Z,11.70
2019-01-03T02:56:08.194Z,11.87
2019-01-03T02:58:39.263Z,16.10
2019-01-03T03:01:16.033Z,11.13
2019-01-03T03:03:47.131Z,9.67
2019-01-03T03:06:18.194Z,9.67
2019-01-03T03:08:58.305Z,10.40
2019-01-03T03:11:41.325Z,13.43
2019-01-03T03:14:18.080Z,11.97
2019-01-03T03:17:05.130Z,9.37
2019-01-03T03:19:41.810Z,12.43
2019-01-03T03:22:28.880Z,12.50
2019-01-03T03:25:11.937Z,12.23
2019-01-03T03:27:55.054Z,9.70
2019-01-03T03:30:37.977Z,11.13
2019-01-03T03:33:21.670Z,12.67
2019-01-03T03:35:52.738Z,9.53
2019-01-03T03:38:29.799Z,13.80
2019-01-03T03:44:11.818Z,10.33
2019-01-03T03:46:45.455Z,10.07
2019-01-03T03:49:16.589Z,9.17
2019-01-03T03:51:50.322Z,14.80
2019-01-03T03:54:24.421Z,12.47
2019-01-03T03:57:01.610Z,10.47
2019-01-03T03:59:44.862Z,10.50
2019-01-03T04:02:32.073Z,13.27
2019-01-03T04:05:03.196Z,13.70
2019-01-03T04:07:34.269Z,12.27
2019-01-03T04:10:06.027Z,10.50
2019-01-03T04:12:39.719Z,9.70
2019-01-03T04:15:28.883Z,9.77
2019-01-03T04:18:15.966Z,8.53
2019-01-03T04:21:03.001Z,10.83
2019-01-03T04:23:36.990Z,12.60
2019-01-03T04:26:23.072Z,11.67
2019-01-03T04:28:54.186Z,11.10
2019-01-03T04:31:28.093Z,10.17
2019-01-03T04:33:59.251Z,11.73
2019-01-03T04:36:46.716Z,8.50
2019-01-03T04:39:23.322Z,7.60
2019-01-03T04:42:03.584Z,10.87
2019-01-03T04:44:37.203Z,11.10
2019-01-03T04:47:17.216Z,11.73
2019-01-03T04:53:02.982Z,9.97
2019-01-03T04:55:50.307Z,10.57
2019-01-03T04:58:37.793Z,12.73
2019-01-03T05:02:03.797Z,9.03
2019-01-03T05:04:50.160Z,9.73
2019-01-03T05:07:39.128Z,8.10
2019-01-03T05:10:13.004Z,12.90
2019-01-03T05:12:53.015Z,8.07
2019-01-03T05:15:40.416Z,14.00
2019-01-03T05:18:27.774Z,9.47
2019-01-03T05:21:04.711Z,10.37
2019-01-03T05:23:57.087Z,9.00
2019-01-03T05:26:25.078Z,9.23
2019-01-03T05:29:12.028Z,9.60
2019-01-03T05:31:43.134Z,10.90
2019-01-03T05:34:23.254Z,9.90
2019-01-03T05:37:10.594Z,8.73
2019-01-03T05:39:57.913Z,7.60
2019-01-03T05:42:45.409Z,10.27
2019-01-03T05:45:19.011Z,10.83
2019-01-03T05:48:06.207Z,8.47
2019-01-03T05:50:53.291Z,11.00
2019-01-03T05:53:40.370Z,10.17
2019-01-03T05:56:27.374Z,8.10
2019-01-03T05:59:14.610Z,8.93
2019-01-03T06:02:01.707Z,12.83
2019-01-03T06:04:38.719Z,7.73
2019-01-03T06:07:18.441Z,8.67
2019-01-03T06:10:05.527Z,7.37
2019-01-03T06:12:42.549Z,8.97
2019-01-03T06:15:13.713Z,8.60
2019-01-03T06:17:44.818Z,8.90
2019-01-03T06:20:18.507Z,8.57
2019-01-03T06:23:05.790Z,9.77
2019-01-03T06:25:48.680Z,8.03
2019-01-03T06:28:28.823Z,8.17
2019-01-03T06:31:16.186Z,7.40
2019-01-03T06:34:03.463Z,7.93
2019-01-03T06:36:36.223Z,8.40
2019-01-03T06:39:14.690Z,9.30
2019-01-03T06:42:02.090Z,7.00
2019-01-03T06:44:38.853Z,10.10
2019-01-03T06:47:18.991Z,7.60
2019-01-03T06:49:52.647Z,6.03
2019-01-03T06:52:41.991Z,8.93
2019-01-03T06:55:31.046Z,6.00
2019-01-03T06:58:20.005Z,9.20
2019-01-03T07:00:51.226Z,6.20
2019-01-03T07:03:25.064Z,6.83
2019-01-03T07:06:04.949Z,8.77
2019-01-03T07:08:44.671Z,8.63
2019-01-03T07:11:22.105Z,6.20
2019-01-03T07:13:51.388Z,6.60
2019-01-03T07:16:31.441Z,10.20
2019-01-03T07:19:02.553Z,6.90
2019-01-03T07:21:42.340Z,7.90
2019-01-03T07:24:28.527Z,9.33
2019-01-03T07:27:05.686Z,15.03
2019-01-03T07:29:36.803Z,6.03
2019-01-03T07:32:13.474Z,7.87
2019-01-03T07:34:50.186Z,9.33
2019-01-03T07:37:21.286Z,11.07
2019-01-03T07:39:55.223Z,8.87
2019-01-03T07:42:42.332Z,8.63
2019-01-03T07:45:13.466Z,7.37
2019-01-03T07:47:50.417Z,10.10
2019-01-03T07:50:21.598Z,10.87
2019-01-03T07:53:04.606Z,8.10
2019-01-03T07:55:41.377Z,7.87
2019-01-03T07:58:28.652Z,10.70
2019-01-03T08:01:16.141Z,8.27
2019-01-03T08:04:02.385Z,9.07
2019-01-03T08:06:39.531Z,8.70
2019-01-03T08:09:19.478Z,10.50
2019-01-03T08:12:07.020Z,10.30
2019-01-03T08:14:50.057Z,11.30
2019-01-03T08:17:23.909Z,9.43
2019-01-03T08:19:54.989Z,12.67
2019-01-03T08:22:34.950Z,11.30
2019-01-03T08:25:19.224Z,8.83
2019-01-03T08:28:08.506Z,11.20
2019-01-03T08:30:42.282Z,7.87
2019-01-03T08:33:25.263Z,9.17
2019-01-03T08:36:12.327Z,9.43
2019-01-03T08:38:52.115Z,11.03
2019-01-03T08:41:23.222Z,11.27
2019-01-03T08:44:09.484Z,8.20
2019-01-03T08:46:43.308Z,9.60
2019-01-03T08:49:30.701Z,7.87
2019-01-03T08:52:07.680Z,10.30
2019-01-03T08:54:41.584Z,10.20
2019-01-03T08:57:15.527Z,8.60
2019-01-03T08:59:46.653Z,8.10
2019-01-03T09:02:29.836Z,6.60
2019-01-03T09:05:00.939Z,8.07
2019-01-03T09:07:47.058Z,15.60
2019-01-03T09:10:18.228Z,12.90
2019-01-03T09:13:04.066Z,10.27
2019-01-03T09:15:35.163Z,9.67
2019-01-03T09:18:22.870Z,9.07
2019-01-03T09:20:59.823Z,8.10
2019-01-03T09:23:47.218Z,10.00
2019-01-03T09:26:34.860Z,7.33
2019-01-03T09:29:05.968Z,8.93
2019-01-03T09:31:37.162Z,9.60
2019-01-03T09:34:24.677Z,9.47
2019-01-03T09:37:04.681Z,9.50
2019-01-03T09:39:52.257Z,9.97
2019-01-03T09:42:32.123Z,7.93
2019-01-03T09:45:01.647Z,9.10
2019-01-03T09:47:31.102Z,9.57
2019-01-03T09:50:00.548Z,8.53
2019-01-03T09:52:29.991Z,8.97
2019-01-03T09:54:59.444Z,8.63
2019-01-03T09:57:29.012Z,10.23
2019-01-03T09:59:58.581Z,7.00
2019-01-03T10:02:28.006Z,10.67
2019-01-03T10:04:57.443Z,10.80
2019-01-03T10:07:26.892Z,8.70
2019-01-03T10:09:56.417Z,10.30
2019-01-03T10:12:25.907Z,8.83
2019-01-03T10:14:55.567Z,9.30
2019-01-03T10:17:25.036Z,6.33
2019-01-03T10:19:54.531Z,9.97
2019-01-03T10:22:24.143Z,8.63
2019-01-03T10:24:53.711Z,7.97
2019-01-03T10:27:23.211Z,8.93
2019-01-03T10:29:52.659Z,9.90
2019-01-03T10:32:22.117Z,10.47
2019-01-03T10:34:51.569Z,9.80
2019-01-03T10:37:21.001Z,7.60
2019-01-03T10:39:50.620Z,8.10
2019-01-03T10:42:20.057Z,7.50
2019-01-03T10:44:49.506Z,8.37
2019-01-03T10:47:19.158Z,7.17
2019-01-03T10:49:48.604Z,6.93
2019-01-03T10:52:18.154Z,7.37
2019-01-03T10:54:47.582Z,6.33
2019-01-03T10:57:17.050Z,6.37
2019-01-03T10:59:46.525Z,10.17
2019-01-03T11:02:15.981Z,6.03
2019-01-03T11:04:45.421Z,7.23
2019-01-03T11:07:14.923Z,6.70
2019-01-03T11:09:44.398Z,6.33
2019-01-03T11:12:13.855Z,7.10
2019-01-03T11:14:43.329Z,5.43
2019-01-03T11:17:12.804Z,6.67
2019-01-03T11:19:42.237Z,8.43
2019-01-03T11:22:11.768Z,7.43
2019-01-03T11:24:41.171Z,7.77
2019-01-03T11:27:10.595Z,6.67
2019-01-03T11:29:40.043Z,9.10
2019-01-03T11:32:09.499Z,9.27
2019-01-03T11:34:39.006Z,8.23
2019-01-03T11:37:08.479Z,4.90
2019-01-03T11:39:37.978Z,6.70
2019-01-03T11:42:07.422Z,6.80
2019-01-03T11:44:36.868Z,8.23
2019-01-03T11:47:06.414Z,7.30
2019-01-03T11:49:35.936Z,5.77
2019-01-03T11:52:05.481Z,7.63
2019-01-03T11:54:34.968Z,6.97
2019-01-03T11:57:05.951Z,6.67
2019-01-03T11:59:35.469Z,4.23
2019-01-03T12:02:04.923Z,4.57
2019-01-03T12:04:34.360Z,6.93
2019-01-03T12:07:03.775Z,5.00
2019-01-03T12:09:33.243Z,4.77
2019-01-03T12:12:02.699Z,4.67
2019-01-03T12:14:32.220Z,7.00
2019-01-03T12:17:01.726Z,8.13
2019-01-03T12:19:31.192Z,4.20
2019-01-03T12:22:00.625Z,5.20
2019-01-03T12:24:30.788Z,5.47
2019-01-03T12:27:00.396Z,4.17
2019-01-03T12:29:29.866Z,6.23
2019-01-03T12:31:59.332Z,5.67
2019-01-03T12:34:28.781Z,5.07
2019-01-03T12:36:58.243Z,3.80
2019-01-03T12:39:27.714Z,4.87
2019-01-03T12:41:57.244Z,4.83
2019-01-03T12:44:26.664Z,6.57
2019-01-03T12:46:56.211Z,8.00
2019-01-03T12:49:25.693Z,5.67
2019-01-03T12:51:55.141Z,5.53
2019-01-03T12:54:24.607Z,4.63
2019-01-03T12:56:54.044Z,8.43
2019-01-03T12:59:23.559Z,5.80
2019-01-03T13:01:53.085Z,7.70
2019-01-03T13:04:22.536Z,5.60
2019-01-03T13:06:51.991Z,7.40
2019-01-03T13:09:21.412Z,7.13
2019-01-03T13:11:50.915Z,8.13
2019-01-03T13:14:20.380Z,4.17
2019-01-03T13:16:49.809Z,5.13
2019-01-03T13:19:19.436Z,5.13
2019-01-03T13:21:48.964Z,6.40
2019-01-03T13:24:18.408Z,5.40
2019-01-03T13:26:47.943Z,6.93
2019-01-03T13:29:17.375Z,3.87
2019-01-03T13:31:46.934Z,6.37
2019-01-03T13:34:16.397Z,3.77
2019-01-03T13:36:45.845Z,4.57
2019-01-03T13:39:15.324Z,5.33
2019-01-03T13:41:44.883Z,8.93
2019-01-03T13:44:14.357Z,5.67
2019-01-03T13:46:43.865Z,4.73
2019-01-03T13:49:13.369Z,7.73
2019-01-03T13:51:42.825Z,4.17
2019-01-03T13:54:12.297Z,5.73
2019-01-03T13:56:41.748Z,5.53
2019-01-03T13:59:11.185Z,6.33
2019-01-03T14:01:40.662Z,5.13
2019-01-03T14:04:10.109Z,7.97
2019-01-03T14:06:39.554Z,6.00
2019-01-03T14:09:09.020Z,6.77
2019-01-03T14:11:38.460Z,6.10
2019-01-03T14:14:07.984Z,5.37
2019-01-03T14:16:37.534Z,4.97
2019-01-03T14:19:06.955Z,5.23
2019-01-03T14:21:36.427Z,4.43
2019-01-03T14:24:05.966Z,5.23
2019-01-03T14:26:35.415Z,7.40
2019-01-03T14:29:04.911Z,3.20
2019-01-03T14:31:34.372Z,5.03
2019-01-03T14:34:03.921Z,5.07
2019-01-03T14:36:33.382Z,6.40
2019-01-03T14:39:04.207Z,4.50
2019-01-03T14:41:33.641Z,3.80
2019-01-03T14:44:03.121Z,4.00
2019-01-03T14:46:32.574Z,7.40
2019-01-03T14:49:02.020Z,5.80
2019-01-03T14:51:31.471Z,4.87
2019-01-03T14:54:00.950Z,4.33
2019-01-03T14:56:30.414Z,5.60
2019-01-03T14:58:59.864Z,2.63
2019-01-03T15:01:29.315Z,5.40
2019-01-03T15:03:58.824Z,6.33
2019-01-03T15:06:28.385Z,5.47
2019-01-03T15:08:57.810Z,7.33
2019-01-03T15:11:27.278Z,6.90
2019-01-03T15:13:56.751Z,4.43
2019-01-03T15:16:26.190Z,8.80
2019-01-03T15:18:55.665Z,4.33
2019-01-03T15:21:25.213Z,3.97
2019-01-03T15:23:54.671Z,5.60
2019-01-03T15:26:24.117Z,3.70
2019-01-03T15:28:53.575Z,6.00
2019-01-03T15:31:23.037Z,5.10
2019-01-03T15:33:52.549Z,5.80
2019-01-03T15:36:22.014Z,6.40
2019-01-03T15:38:51.473Z,7.03
2019-01-03T15:41:20.941Z,4.90
2019-01-03T15:43:50.379Z,5.03
2019-01-03T15:46:19.832Z,7.37
2019-01-03T15:48:49.267Z,6.73
2019-01-03T15:51:18.710Z,5.10
2019-01-03T15:53:48.176Z,4.70
2019-01-03T15:56:17.652Z,6.40
2019-01-03T15:58:47.103Z,4.30
2019-01-03T16:01:16.643Z,6.57
2019-01-03T16:03:46.130Z,6.47
2019-01-03T16:06:15.584Z,4.67
2019-01-03T16:08:45.067Z,4.80
2019-01-03T16:11:14.512Z,6.53
2019-01-03T16:13:43.953Z,5.83
2019-01-03T16:16:13.401Z,4.57
2019-01-03T16:18:42.901Z,6.27
2019-01-03T16:21:12.355Z,5.33
2019-01-03T16:23:41.853Z,6.40
2019-01-03T16:26:11.334Z,4.13
2019-01-03T16:28:40.741Z,4.03
2019-01-03T16:31:10.270Z,5.63
2019-01-03T16:33:40.010Z,5.60
2019-01-03T16:36:09.443Z,6.40
2019-01-03T16:38:38.984Z,4.93
2019-01-03T16:41:08.610Z,7.73
2019-01-03T16:43:38.195Z,5.13
2019-01-03T16:46:07.672Z,4.77
2019-01-03T16:48:37.110Z,7.67
2019-01-03T16:51:06.642Z,5.13
2019-01-03T16:53:36.092Z,5.10
2019-01-03T16:56:05.614Z,3.50
2019-01-03T16:58:35.042Z,5.57
2019-01-03T17:01:04.572Z,7.07
2019-01-03T17:03:34.109Z,7.10
2019-01-03T17:06:03.627Z,6.50
2019-01-03T17:08:33.073Z,5.73
2019-01-03T17:11:02.572Z,5.03
2019-01-03T17:13:32.067Z,4.13
2019-01-03T17:16:01.534Z,6.30
2019-01-03T17:18:31.044Z,6.87
2019-01-03T17:21:00.551Z,4.00
2019-01-03T17:23:30.009Z,4.07
2019-01-03T17:25:59.450Z,4.27
2019-01-03T17:28:28.940Z,5.97
2019-01-03T17:30:58.372Z,6.07
2019-01-03T17:33:27.902Z,4.20
2019-01-03T17:35:57.530Z,5.23
2019-01-03T17:38:27.033Z,6.60
2019-01-03T17:40:56.496Z,7.17
2019-01-03T17:43:26.104Z,3.90
2019-01-03T17:45:55.603Z,3.30
2019-01-03T17:48:25.081Z,5.77
2019-01-03T17:50:54.567Z,4.87
2019-01-03T17:53:24.013Z,7.10
2019-01-03T17:55:53.463Z,4.60
2019-01-03T17:58:23.049Z,6.23
2019-01-03T18:00:52.795Z,5.20
2019-01-03T18:03:23.901Z,5.37
2019-01-03T18:05:53.381Z,6.57
2019-01-03T18:08:22.825Z,6.50
2019-01-03T18:10:52.431Z,5.10
2019-01-03T18:13:21.897Z,5.33
2019-01-03T18:15:51.349Z,5.13
2019-01-03T18:18:20.815Z,5.90
2019-01-03T18:20:50.309Z,5.80
2019-01-03T18:23:19.747Z,3.60
2019-01-03T18:25:49.187Z,3.97
2019-01-03T18:28:18.663Z,6.90
2019-01-03T18:30:48.136Z,4.93
2019-01-03T18:33:17.585Z,5.33
2019-01-03T18:35:47.128Z,3.30
2019-01-03T18:38:16.594Z,5.27
2019-01-03T18:40:46.106Z,7.90
2019-01-03T18:43:15.553Z,7.20
2019-01-03T18:45:45.044Z,4.53
2019-01-03T18:48:14.497Z,5.97
2019-01-03T18:50:44.015Z,6.37
2019-01-03T18:53:13.589Z,3.90
2019-01-03T18:55:43.049Z,6.07
2019-01-03T18:58:12.491Z,4.63
2019-01-03T19:00:42.093Z,8.30
2019-01-03T19:03:11.565Z,6.17
2019-01-03T19:05:40.990Z,4.30
2019-01-03T19:08:10.548Z,4.63
2019-01-03T19:10:40.002Z,7.40
2019-01-03T19:13:09.442Z,5.70
2019-01-03T19:15:38.963Z,4.43
2019-01-03T19:18:08.536Z,4.70
2019-01-03T19:20:38.032Z,4.90
2019-01-03T19:23:07.534Z,2.60
2019-01-03T19:25:37.052Z,3.77
2019-01-03T19:28:06.507Z,5.70
2019-01-03T19:30:35.962Z,6.70
2019-01-03T19:33:05.481Z,6.37
2019-01-03T19:35:34.988Z,3.27
2019-01-03T19:38:04.565Z,4.53
2019-01-03T19:40:34.078Z,4.43
2019-01-03T19:43:03.535Z,8.50
2019-01-03T19:45:32.977Z,6.23
2019-01-03T19:48:02.426Z,4.40
2019-01-03T19:50:31.886Z,4.37
2019-01-03T19:53:01.325Z,4.63
2019-01-03T19:55:30.804Z,5.70
2019-01-03T19:58:00.294Z,4.17
2019-01-03T20:00:29.834Z,9.37
2019-01-03T20:02:59.274Z,5.80
2019-01-03T20:05:28.724Z,5.20
2019-01-03T20:07:58.236Z,4.27
2019-01-03T20:10:27.774Z,5.53
2019-01-03T20:12:57.208Z,3.97
2019-01-03T20:15:26.850Z,5.03
2019-01-03T20:17:56.280Z,5.50
2019-01-03T20:20:25.859Z,4.33
2019-01-03T20:22:55.488Z,4.57
2019-01-03T20:25:25.028Z,5.00
2019-01-03T20:27:54.570Z,5.50
2019-01-03T20:30:24.008Z,4.30
2019-01-03T20:32:53.501Z,4.17
2019-01-03T20:35:23.051Z,4.80
2019-01-03T20:37:53.148Z,4.90
2019-01-03T20:40:22.726Z,5.70
2019-01-03T20:42:52.164Z,8.03
2019-01-03T20:45:21.636Z,4.07
2019-01-03T20:47:51.143Z,3.80
2019-01-03T20:50:20.582Z,7.83
2019-01-03T20:52:50.117Z,5.63
2019-01-03T20:55:19.559Z,5.57
2019-01-03T20:57:49.094Z,5.97
2019-01-03T21:00:18.690Z,5.17
2019-01-03T21:02:48.122Z,4.67
2019-01-03T21:05:17.737Z,7.03
2019-01-03T21:07:47.199Z,5.80
2019-01-03T21:10:16.749Z,4.37
2019-01-03T21:12:46.194Z,5.20
2019-01-03T21:15:17.240Z,5.50
2019-01-03T21:17:46.754Z,7.10
2019-01-03T21:20:17.420Z,4.33
2019-01-03T21:22:46.993Z,6.30
2019-01-03T21:25:16.727Z,4.70
2019-01-03T21:27:46.347Z,5.13
2019-01-03T21:30:19.675Z,4.47
2019-01-03T21:32:49.266Z,5.77
2019-01-03T21:35:18.720Z,5.67
2019-01-03T21:37:48.165Z,9.17
2019-01-03T21:40:17.691Z,4.30
2019-01-03T21:42:47.234Z,4.97
2019-01-03T21:45:16.811Z,5.20
2019-01-03T21:47:46.251Z,4.93
2019-01-03T21:50:15.837Z,4.73
2019-01-03T21:52:45.349Z,5.13
2019-01-03T21:55:14.809Z,6.43
2019-01-03T21:57:44.350Z,4.93
2019-01-03T22:00:14.168Z,8.47
2019-01-03T22:02:43.623Z,6.63
2019-01-03T22:05:13.076Z,5.70
2019-01-03T22:07:42.520Z,8.07
2019-01-03T22:10:12.122Z,5.47
2019-01-03T22:12:41.602Z,7.87
2019-01-03T22:15:11.484Z,5.87
2019-01-03T22:17:41.093Z,9.57
2019-01-03T22:20:10.967Z,7.07
2019-01-03T22:22:40.451Z,5.67
2019-01-03T22:25:10.127Z,6.70
2019-01-03T22:27:39.798Z,8.03
2019-01-03T22:30:11.267Z,6.30
2019-01-03T22:32:40.778Z,11.90
2019-01-03T22:35:10.419Z,5.50
2019-01-03T22:37:39.960Z,5.87
2019-01-03T22:40:09.711Z,5.73
2019-01-03T22:42:39.231Z,6.53
2019-01-03T22:45:09.722Z,4.53
2019-01-03T22:47:39.202Z,6.47
2019-01-03T22:50:12.090Z,8.03
2019-01-03T22:52:41.536Z,6.43
2019-01-03T22:55:11.003Z,8.10
2019-01-03T22:57:40.517Z,7.13
2019-01-03T23:00:30.770Z,8.10
2019-01-03T23:03:00.331Z,7.30
2019-01-03T23:05:29.904Z,7.43
2019-01-03T23:07:59.353Z,6.23
2019-01-03T23:10:28.813Z,5.20
2019-01-03T23:12:58.278Z,6.27
2019-01-03T23:15:27.880Z,8.93
2019-01-03T23:17:57.337Z,7.83
2019-01-03T23:20:26.809Z,7.23
2019-01-03T23:22:56.326Z,7.60
2019-01-03T23:25:25.824Z,6.13
2019-01-03T23:27:55.287Z,6.53
2019-01-03T23:30:24.715Z,8.00
2019-01-03T23:32:54.175Z,6.30
2019-01-03T23:35:23.645Z,10.27
2019-01-03T23:37:53.184Z,7.17
2019-01-03T23:40:22.706Z,6.67
2019-01-03T23:42:52.239Z,7.17
2019-01-03T23:45:22.482Z,8.43
2019-01-03T23:47:53.090Z,7.53
2019-01-03T23:50:29.068Z,7.67
2019-01-03T23:52:58.568Z,7.83
2019-01-03T23:55:29.532Z,8.37
2019-01-03T23:57:59.081Z,7.97
